sensor_id;sensor_type;location;lat;lon;timestamp;P1;durP1;ratioP1;P2;durP2;ratioP2
19675;SDS011;39539;52.202;9.876;2022-09-17T00:00:45;1.67;;;0.80;;
19675;SDS011;39539;52.202;9.876;2022-09-17T00:03:11;1.35;;;0.52;;
19675;SDS011;39539;52.202;9.876;2022-09-17T00:05:37;2.17;;;0.90;;
19675;SDS011;39539;52.202;9.876;2022-09-17T00:08:03;1.88;;;0.77;;
19675;SDS011;39539;52.202;9.876;2022-09-17T00:10:29;2.13;;;0.90;;
19675;SDS011;39539;52.202;9.876;2022-09-17T00:12:55;1.67;;;1.00;;
19675;SDS011;39539;52.202;9.876;2022-09-17T00:15:21;0.90;;;0.60;;
19675;SDS011;39539;52.202;9.876;2022-09-17T00:17:46;2.22;;;1.27;;
19675;SDS011;39539;52.202;9.876;2022-09-17T00:20:11;3.70;;;1.45;;
19675;SDS011;39539;52.202;9.876;2022-09-17T00:22:37;3.25;;;1.55;;
19675;SDS011;39539;52.202;9.876;2022-09-17T00:25:04;4.03;;;1.80;;
19675;SDS011;39539;52.202;9.876;2022-09-17T00:27:30;5.10;;;2.00;;
19675;SDS011;39539;52.202;9.876;2022-09-17T00:29:55;3.50;;;1.75;;
19675;SDS011;39539;52.202;9.876;2022-09-17T00:32:21;4.88;;;2.05;;
19675;SDS011;39539;52.202;9.876;2022-09-17T00:34:47;4.35;;;2.00;;
19675;SDS011;39539;52.202;9.876;2022-09-17T00:37:16;4.45;;;2.30;;
19675;SDS011;39539;52.202;9.876;2022-09-17T00:39:42;5.13;;;2.13;;
19675;SDS011;39539;52.202;9.876;2022-09-17T00:42:08;5.85;;;2.55;;
19675;SDS011;39539;52.202;9.876;2022-09-17T00:44:43;6.28;;;2.65;;
19675;SDS011;39539;52.202;9.876;2022-09-17T00:47:24;7.22;;;2.22;;
19675;SDS011;39539;52.202;9.876;2022-09-17T00:49:58;8.68;;;2.45;;
19675;SDS011;39539;52.202;9.876;2022-09-17T00:52:30;5.38;;;2.38;;
19675;SDS011;39539;52.202;9.876;2022-09-17T00:55:05;6.85;;;2.60;;
19675;SDS011;39539;52.202;9.876;2022-09-17T00:57:37;5.80;;;2.28;;
19675;SDS011;39539;52.202;9.876;2022-09-17T01:00:05;6.97;;;2.90;;
19675;SDS011;39539;52.202;9.876;2022-09-17T01:02:33;4.38;;;2.00;;
19675;SDS011;39539;52.202;9.876;2022-09-17T01:04:58;5.07;;;2.10;;
19675;SDS011;39539;52.202;9.876;2022-09-17T01:07:34;3.50;;;1.88;;
19675;SDS011;39539;52.202;9.876;2022-09-17T01:16:08;7.13;;;2.35;;
19675;SDS011;39539;52.202;9.876;2022-09-17T01:18:51;9.48;;;2.70;;
19675;SDS011;39539;52.202;9.876;2022-09-17T01:21:37;6.72;;;2.63;;
19675;SDS011;39539;52.202;9.876;2022-09-17T01:35:51;8.27;;;2.25;;
19675;SDS011;39539;52.202;9.876;2022-09-17T01:38:29;6.50;;;2.25;;
19675;SDS011;39539;52.202;9.876;2022-09-17T01:41:04;5.22;;;2.33;;
19675;SDS011;39539;52.202;9.876;2022-09-17T01:43:42;5.22;;;2.30;;
19675;SDS011;39539;52.202;9.876;2022-09-17T01:46:19;6.47;;;2.30;;
19675;SDS011;39539;52.202;9.876;2022-09-17T01:48:53;7.97;;;2.72;;
19675;SDS011;39539;52.202;9.876;2022-09-17T01:51:27;5.72;;;2.10;;
19675;SDS011;39539;52.202;9.876;2022-09-17T01:56:39;6.78;;;2.28;;
19675;SDS011;39539;52.202;9.876;2022-09-17T01:59:19;5.40;;;2.17;;
19675;SDS011;39539;52.202;9.876;2022-09-17T02:01:52;7.43;;;2.47;;
19675;SDS011;39539;52.202;9.876;2022-09-17T02:04:24;7.57;;;2.42;;
19675;SDS011;39539;52.202;9.876;2022-09-17T02:06:56;8.13;;;2.60;;
19675;SDS011;39539;52.202;9.876;2022-09-17T02:09:29;5.03;;;2.30;;
19675;SDS011;39539;52.202;9.876;2022-09-17T02:12:00;5.90;;;2.63;;
19675;SDS011;39539;52.202;9.876;2022-09-17T02:14:32;6.10;;;2.15;;
19675;SDS011;39539;52.202;9.876;2022-09-17T02:17:05;8.85;;;2.90;;
19675;SDS011;39539;52.202;9.876;2022-09-17T02:19:39;8.00;;;2.58;;
19675;SDS011;39539;52.202;9.876;2022-09-17T02:22:14;7.13;;;2.40;;
19675;SDS011;39539;52.202;9.876;2022-09-17T02:30:27;7.13;;;2.65;;
19675;SDS011;39539;52.202;9.876;2022-09-17T02:32:53;6.82;;;2.47;;
19675;SDS011;39539;52.202;9.876;2022-09-17T02:35:19;7.53;;;2.55;;
19675;SDS011;39539;52.202;9.876;2022-09-17T02:37:47;9.02;;;2.60;;
19675;SDS011;39539;52.202;9.876;2022-09-17T02:40:13;9.05;;;2.75;;
19675;SDS011;39539;52.202;9.876;2022-09-17T02:46:00;7.60;;;2.47;;
19675;SDS011;39539;52.202;9.876;2022-09-17T02:54:20;8.70;;;2.67;;
19675;SDS011;39539;52.202;9.876;2022-09-17T02:59:39;8.27;;;2.70;;
19675;SDS011;39539;52.202;9.876;2022-09-17T03:02:15;7.32;;;2.60;;
19675;SDS011;39539;52.202;9.876;2022-09-17T03:04:46;6.38;;;2.72;;
19675;SDS011;39539;52.202;9.876;2022-09-17T03:07:13;6.93;;;2.58;;
19675;SDS011;39539;52.202;9.876;2022-09-17T03:09:40;9.35;;;3.08;;
19675;SDS011;39539;52.202;9.876;2022-09-17T03:12:07;5.88;;;2.15;;
19675;SDS011;39539;52.202;9.876;2022-09-17T03:14:34;9.00;;;2.78;;
19675;SDS011;39539;52.202;9.876;2022-09-17T03:17:00;7.45;;;2.95;;
19675;SDS011;39539;52.202;9.876;2022-09-17T03:19:26;6.95;;;2.90;;
19675;SDS011;39539;52.202;9.876;2022-09-17T03:21:52;6.03;;;2.85;;
19675;SDS011;39539;52.202;9.876;2022-09-17T03:24:17;8.27;;;2.55;;
19675;SDS011;39539;52.202;9.876;2022-09-17T03:26:43;8.75;;;2.90;;
19675;SDS011;39539;52.202;9.876;2022-09-17T03:29:08;8.88;;;2.80;;
19675;SDS011;39539;52.202;9.876;2022-09-17T03:31:33;7.07;;;3.05;;
19675;SDS011;39539;52.202;9.876;2022-09-17T03:33:59;5.53;;;2.30;;
19675;SDS011;39539;52.202;9.876;2022-09-17T03:36:24;7.95;;;3.10;;
19675;SDS011;39539;52.202;9.876;2022-09-17T03:38:56;7.93;;;3.20;;
19675;SDS011;39539;52.202;9.876;2022-09-17T03:41:22;9.20;;;2.70;;
19675;SDS011;39539;52.202;9.876;2022-09-17T03:43:49;8.60;;;2.90;;
19675;SDS011;39539;52.202;9.876;2022-09-17T03:46:15;8.02;;;3.30;;
19675;SDS011;39539;52.202;9.876;2022-09-17T03:48:40;7.10;;;2.40;;
19675;SDS011;39539;52.202;9.876;2022-09-17T03:51:06;8.52;;;2.88;;
19675;SDS011;39539;52.202;9.876;2022-09-17T03:53:31;11.85;;;3.20;;
19675;SDS011;39539;52.202;9.876;2022-09-17T03:55:58;6.95;;;2.30;;
19675;SDS011;39539;52.202;9.876;2022-09-17T03:58:23;8.05;;;2.90;;
19675;SDS011;39539;52.202;9.876;2022-09-17T04:00:51;7.50;;;2.47;;
19675;SDS011;39539;52.202;9.876;2022-09-17T04:03:17;8.27;;;2.55;;
19675;SDS011;39539;52.202;9.876;2022-09-17T04:05:43;8.90;;;2.92;;
19675;SDS011;39539;52.202;9.876;2022-09-17T04:08:09;12.18;;;3.00;;
19675;SDS011;39539;52.202;9.876;2022-09-17T04:10:34;8.40;;;2.78;;
19675;SDS011;39539;52.202;9.876;2022-09-17T04:12:59;9.05;;;2.90;;
19675;SDS011;39539;52.202;9.876;2022-09-17T04:15:25;8.90;;;2.88;;
19675;SDS011;39539;52.202;9.876;2022-09-17T04:17:54;7.90;;;2.42;;
19675;SDS011;39539;52.202;9.876;2022-09-17T04:20:23;7.85;;;3.15;;
19675;SDS011;39539;52.202;9.876;2022-09-17T04:22:49;8.88;;;2.78;;
19675;SDS011;39539;52.202;9.876;2022-09-17T04:25:14;6.70;;;2.65;;
19675;SDS011;39539;52.202;9.876;2022-09-17T04:27:39;7.32;;;2.75;;
19675;SDS011;39539;52.202;9.876;2022-09-17T04:30:05;8.95;;;2.78;;
19675;SDS011;39539;52.202;9.876;2022-09-17T04:32:31;6.80;;;2.58;;
19675;SDS011;39539;52.202;9.876;2022-09-17T04:34:57;9.73;;;3.00;;
19675;SDS011;39539;52.202;9.876;2022-09-17T04:37:22;8.93;;;2.90;;
19675;SDS011;39539;52.202;9.876;2022-09-17T04:39:49;6.82;;;2.53;;
19675;SDS011;39539;52.202;9.876;2022-09-17T04:42:16;8.93;;;2.88;;
19675;SDS011;39539;52.202;9.876;2022-09-17T04:44:42;6.22;;;2.60;;
19675;SDS011;39539;52.202;9.876;2022-09-17T04:47:07;6.68;;;2.47;;
19675;SDS011;39539;52.202;9.876;2022-09-17T04:49:33;8.52;;;3.05;;
19675;SDS011;39539;52.202;9.876;2022-09-17T04:52:10;8.93;;;2.85;;
19675;SDS011;39539;52.202;9.876;2022-09-17T04:54:39;9.80;;;3.05;;
19675;SDS011;39539;52.202;9.876;2022-09-17T04:57:05;12.00;;;2.83;;
19675;SDS011;39539;52.202;9.876;2022-09-17T04:59:31;8.30;;;2.60;;
19675;SDS011;39539;52.202;9.876;2022-09-17T05:01:56;7.18;;;2.65;;
19675;SDS011;39539;52.202;9.876;2022-09-17T05:04:21;8.80;;;2.83;;
19675;SDS011;39539;52.202;9.876;2022-09-17T05:06:47;8.27;;;3.45;;
19675;SDS011;39539;52.202;9.876;2022-09-17T05:09:12;7.63;;;3.25;;
19675;SDS011;39539;52.202;9.876;2022-09-17T05:11:38;10.13;;;3.83;;
19675;SDS011;39539;52.202;9.876;2022-09-17T05:14:04;9.85;;;3.10;;
19675;SDS011;39539;52.202;9.876;2022-09-17T05:16:29;7.88;;;3.17;;
19675;SDS011;39539;52.202;9.876;2022-09-17T05:18:56;9.68;;;3.05;;
19675;SDS011;39539;52.202;9.876;2022-09-17T05:21:23;8.10;;;2.90;;
19675;SDS011;39539;52.202;9.876;2022-09-17T05:23:49;9.98;;;2.72;;
19675;SDS011;39539;52.202;9.876;2022-09-17T05:26:14;7.75;;;2.88;;
19675;SDS011;39539;52.202;9.876;2022-09-17T05:28:39;9.30;;;2.50;;
19675;SDS011;39539;52.202;9.876;2022-09-17T05:31:05;12.85;;;3.38;;
19675;SDS011;39539;52.202;9.876;2022-09-17T05:33:31;9.80;;;3.47;;
19675;SDS011;39539;52.202;9.876;2022-09-17T05:35:56;6.80;;;2.88;;
19675;SDS011;39539;52.202;9.876;2022-09-17T05:38:22;11.93;;;2.53;;
19675;SDS011;39539;52.202;9.876;2022-09-17T05:40:47;9.32;;;3.00;;
19675;SDS011;39539;52.202;9.876;2022-09-17T05:43:16;10.05;;;2.55;;
19675;SDS011;39539;52.202;9.876;2022-09-17T05:45:42;10.43;;;3.20;;
19675;SDS011;39539;52.202;9.876;2022-09-17T05:48:10;6.35;;;2.45;;
19675;SDS011;39539;52.202;9.876;2022-09-17T05:50:37;6.28;;;2.72;;
19675;SDS011;39539;52.202;9.876;2022-09-17T05:53:03;8.43;;;2.03;;
19675;SDS011;39539;52.202;9.876;2022-09-17T05:55:30;6.88;;;2.92;;
19675;SDS011;39539;52.202;9.876;2022-09-17T05:57:56;6.97;;;2.80;;
19675;SDS011;39539;52.202;9.876;2022-09-17T06:00:22;8.45;;;2.63;;
19675;SDS011;39539;52.202;9.876;2022-09-17T06:02:53;7.97;;;2.72;;
19675;SDS011;39539;52.202;9.876;2022-09-17T06:05:19;7.38;;;2.33;;
19675;SDS011;39539;52.202;9.876;2022-09-17T06:07:44;7.32;;;2.50;;
19675;SDS011;39539;52.202;9.876;2022-09-17T06:10:10;6.78;;;2.60;;
19675;SDS011;39539;52.202;9.876;2022-09-17T06:12:35;6.10;;;2.28;;
19675;SDS011;39539;52.202;9.876;2022-09-17T06:15:01;6.03;;;2.00;;
19675;SDS011;39539;52.202;9.876;2022-09-17T06:17:27;8.38;;;2.72;;
19675;SDS011;39539;52.202;9.876;2022-09-17T06:19:52;8.25;;;2.35;;
19675;SDS011;39539;52.202;9.876;2022-09-17T06:22:18;8.15;;;2.40;;
19675;SDS011;39539;52.202;9.876;2022-09-17T06:24:47;8.32;;;2.67;;
19675;SDS011;39539;52.202;9.876;2022-09-17T06:27:17;7.00;;;2.63;;
19675;SDS011;39539;52.202;9.876;2022-09-17T06:29:43;7.82;;;2.28;;
19675;SDS011;39539;52.202;9.876;2022-09-17T06:32:08;8.05;;;2.15;;
19675;SDS011;39539;52.202;9.876;2022-09-17T06:34:35;10.18;;;2.75;;
19675;SDS011;39539;52.202;9.876;2022-09-17T06:37:01;6.63;;;2.20;;
19675;SDS011;39539;52.202;9.876;2022-09-17T06:39:26;5.78;;;2.55;;
19675;SDS011;39539;52.202;9.876;2022-09-17T06:41:52;5.80;;;2.22;;
19675;SDS011;39539;52.202;9.876;2022-09-17T06:44:17;6.63;;;2.20;;
19675;SDS011;39539;52.202;9.876;2022-09-17T06:46:42;8.15;;;2.40;;
19675;SDS011;39539;52.202;9.876;2022-09-17T06:49:08;6.07;;;1.80;;
19675;SDS011;39539;52.202;9.876;2022-09-17T06:51:33;6.20;;;2.00;;
19675;SDS011;39539;52.202;9.876;2022-09-17T06:54:00;5.78;;;1.70;;
19675;SDS011;39539;52.202;9.876;2022-09-17T06:56:25;4.25;;;1.60;;
19675;SDS011;39539;52.202;9.876;2022-09-17T06:58:51;5.22;;;2.00;;
19675;SDS011;39539;52.202;9.876;2022-09-17T07:01:17;4.82;;;1.55;;
19675;SDS011;39539;52.202;9.876;2022-09-17T07:03:43;4.22;;;1.80;;
19675;SDS011;39539;52.202;9.876;2022-09-17T07:06:09;3.92;;;1.65;;
19675;SDS011;39539;52.202;9.876;2022-09-17T07:08:36;6.35;;;1.83;;
19675;SDS011;39539;52.202;9.876;2022-09-17T07:11:03;3.53;;;1.52;;
19675;SDS011;39539;52.202;9.876;2022-09-17T07:13:32;4.25;;;1.55;;
19675;SDS011;39539;52.202;9.876;2022-09-17T07:16:00;4.50;;;1.25;;
19675;SDS011;39539;52.202;9.876;2022-09-17T07:18:27;5.30;;;1.83;;
19675;SDS011;39539;52.202;9.876;2022-09-17T07:20:56;4.95;;;1.58;;
19675;SDS011;39539;52.202;9.876;2022-09-17T07:23:27;4.40;;;1.65;;
19675;SDS011;39539;52.202;9.876;2022-09-17T07:26:04;6.18;;;1.77;;
19675;SDS011;39539;52.202;9.876;2022-09-17T07:28:32;6.10;;;2.05;;
19675;SDS011;39539;52.202;9.876;2022-09-17T07:30:57;8.45;;;2.40;;
19675;SDS011;39539;52.202;9.876;2022-09-17T07:33:24;6.30;;;2.10;;
19675;SDS011;39539;52.202;9.876;2022-09-17T07:35:56;6.85;;;2.13;;
19675;SDS011;39539;52.202;9.876;2022-09-17T07:38:24;4.07;;;1.83;;
19675;SDS011;39539;52.202;9.876;2022-09-17T07:40:54;5.55;;;2.20;;
19675;SDS011;39539;52.202;9.876;2022-09-17T07:43:28;5.50;;;1.80;;
19675;SDS011;39539;52.202;9.876;2022-09-17T07:45:55;7.70;;;1.98;;
19675;SDS011;39539;52.202;9.876;2022-09-17T07:48:22;7.50;;;1.83;;
19675;SDS011;39539;52.202;9.876;2022-09-17T07:50:47;5.28;;;1.90;;
19675;SDS011;39539;52.202;9.876;2022-09-17T07:53:13;5.18;;;1.77;;
19675;SDS011;39539;52.202;9.876;2022-09-17T07:55:49;3.85;;;1.65;;
19675;SDS011;39539;52.202;9.876;2022-09-17T07:58:15;4.25;;;1.52;;
19675;SDS011;39539;52.202;9.876;2022-09-17T08:00:40;5.90;;;1.50;;
19675;SDS011;39539;52.202;9.876;2022-09-17T08:03:07;3.58;;;1.38;;
19675;SDS011;39539;52.202;9.876;2022-09-17T08:05:33;4.43;;;1.60;;
19675;SDS011;39539;52.202;9.876;2022-09-17T08:07:58;6.35;;;1.73;;
19675;SDS011;39539;52.202;9.876;2022-09-17T08:10:24;5.20;;;1.98;;
19675;SDS011;39539;52.202;9.876;2022-09-17T08:12:54;4.78;;;1.60;;
19675;SDS011;39539;52.202;9.876;2022-09-17T08:15:20;5.05;;;1.52;;
19675;SDS011;39539;52.202;9.876;2022-09-17T08:17:47;6.68;;;1.52;;
19675;SDS011;39539;52.202;9.876;2022-09-17T08:20:14;5.28;;;1.98;;
19675;SDS011;39539;52.202;9.876;2022-09-17T08:22:40;5.03;;;1.50;;
19675;SDS011;39539;52.202;9.876;2022-09-17T08:25:07;4.65;;;1.60;;
19675;SDS011;39539;52.202;9.876;2022-09-17T08:27:34;4.53;;;1.42;;
19675;SDS011;39539;52.202;9.876;2022-09-17T08:29:59;3.08;;;1.42;;
19675;SDS011;39539;52.202;9.876;2022-09-17T08:32:25;3.10;;;1.40;;
19675;SDS011;39539;52.202;9.876;2022-09-17T08:34:50;6.00;;;1.73;;
19675;SDS011;39539;52.202;9.876;2022-09-17T08:37:18;3.45;;;1.20;;
19675;SDS011;39539;52.202;9.876;2022-09-17T08:39:44;5.43;;;1.45;;
19675;SDS011;39539;52.202;9.876;2022-09-17T08:44:44;4.75;;;1.65;;
19675;SDS011;39539;52.202;9.876;2022-09-17T08:47:33;5.40;;;1.75;;
19675;SDS011;39539;52.202;9.876;2022-09-17T08:50:01;4.13;;;1.48;;
19675;SDS011;39539;52.202;9.876;2022-09-17T09:06:50;5.35;;;1.60;;
19675;SDS011;39539;52.202;9.876;2022-09-17T09:09:23;5.88;;;1.50;;
19675;SDS011;39539;52.202;9.876;2022-09-17T09:11:56;7.55;;;1.85;;
19675;SDS011;39539;52.202;9.876;2022-09-17T09:14:39;6.07;;;1.95;;
19675;SDS011;39539;52.202;9.876;2022-09-17T09:17:08;7.28;;;1.63;;
19675;SDS011;39539;52.202;9.876;2022-09-17T09:19:40;8.07;;;1.95;;
19675;SDS011;39539;52.202;9.876;2022-09-17T09:30:45;5.82;;;1.92;;
19675;SDS011;39539;52.202;9.876;2022-09-17T09:33:16;6.05;;;1.90;;
19675;SDS011;39539;52.202;9.876;2022-09-17T09:35:48;4.55;;;1.70;;
19675;SDS011;39539;52.202;9.876;2022-09-17T09:43:45;5.72;;;2.00;;
19675;SDS011;39539;52.202;9.876;2022-09-17T09:57:46;4.93;;;1.83;;
19675;SDS011;39539;52.202;9.876;2022-09-17T10:00:25;5.13;;;1.83;;
19675;SDS011;39539;52.202;9.876;2022-09-17T10:03:15;4.68;;;1.50;;
19675;SDS011;39539;52.202;9.876;2022-09-17T10:08:25;4.93;;;1.48;;
19675;SDS011;39539;52.202;9.876;2022-09-17T10:13:24;5.82;;;1.90;;
19675;SDS011;39539;52.202;9.876;2022-09-17T10:15:54;4.68;;;1.83;;
19675;SDS011;39539;52.202;9.876;2022-09-17T10:18:21;4.53;;;1.45;;
19675;SDS011;39539;52.202;9.876;2022-09-17T10:20:49;7.45;;;1.70;;
19675;SDS011;39539;52.202;9.876;2022-09-17T10:23:16;3.13;;;1.40;;
19675;SDS011;39539;52.202;9.876;2022-09-17T10:25:42;7.35;;;1.55;;
19675;SDS011;39539;52.202;9.876;2022-09-17T10:28:27;3.33;;;1.60;;
19675;SDS011;39539;52.202;9.876;2022-09-17T10:30:57;5.43;;;1.52;;
19675;SDS011;39539;52.202;9.876;2022-09-17T10:33:28;6.40;;;2.17;;
19675;SDS011;39539;52.202;9.876;2022-09-17T10:35:58;5.78;;;1.67;;
19675;SDS011;39539;52.202;9.876;2022-09-17T10:43:39;5.80;;;1.60;;
19675;SDS011;39539;52.202;9.876;2022-09-17T10:46:07;4.60;;;1.70;;
19675;SDS011;39539;52.202;9.876;2022-09-17T10:48:43;3.63;;;1.42;;
19675;SDS011;39539;52.202;9.876;2022-09-17T10:51:30;6.00;;;1.70;;
19675;SDS011;39539;52.202;9.876;2022-09-17T10:56:36;7.55;;;1.75;;
19675;SDS011;39539;52.202;9.876;2022-09-17T11:08:28;3.90;;;1.10;;
19675;SDS011;39539;52.202;9.876;2022-09-17T11:16:46;3.35;;;1.30;;
19675;SDS011;39539;52.202;9.876;2022-09-17T11:30:21;4.47;;;1.30;;
19675;SDS011;39539;52.202;9.876;2022-09-17T11:35:36;6.00;;;1.52;;
19675;SDS011;39539;52.202;9.876;2022-09-17T11:41:06;3.75;;;1.30;;
19675;SDS011;39539;52.202;9.876;2022-09-17T11:43:45;4.10;;;1.20;;
19675;SDS011;39539;52.202;9.876;2022-09-17T11:46:26;2.63;;;1.25;;
19675;SDS011;39539;52.202;9.876;2022-09-17T11:49:07;4.43;;;1.50;;
19675;SDS011;39539;52.202;9.876;2022-09-17T11:51:50;7.05;;;1.40;;
19675;SDS011;39539;52.202;9.876;2022-09-17T11:57:17;4.75;;;1.05;;
19675;SDS011;39539;52.202;9.876;2022-09-17T12:02:46;2.63;;;1.15;;
19675;SDS011;39539;52.202;9.876;2022-09-17T12:05:25;3.10;;;1.48;;
19675;SDS011;39539;52.202;9.876;2022-09-17T12:13:49;2.40;;;1.20;;
19675;SDS011;39539;52.202;9.876;2022-09-17T12:21:56;4.05;;;1.35;;
19675;SDS011;39539;52.202;9.876;2022-09-17T12:24:29;3.95;;;1.30;;
19675;SDS011;39539;52.202;9.876;2022-09-17T12:33:19;2.97;;;1.10;;
19675;SDS011;39539;52.202;9.876;2022-09-17T12:42:13;3.45;;;1.13;;
19675;SDS011;39539;52.202;9.876;2022-09-17T12:54:56;5.38;;;1.98;;
19675;SDS011;39539;52.202;9.876;2022-09-17T13:00:16;4.32;;;1.25;;
19675;SDS011;39539;52.202;9.876;2022-09-17T13:02:44;3.20;;;1.23;;
19675;SDS011;39539;52.202;9.876;2022-09-17T13:13:35;1.95;;;0.85;;
19675;SDS011;39539;52.202;9.876;2022-09-17T13:16:23;2.63;;;0.80;;
19675;SDS011;39539;52.202;9.876;2022-09-17T13:21:54;0.98;;;0.60;;
19675;SDS011;39539;52.202;9.876;2022-09-17T13:24:27;3.08;;;0.98;;
19675;SDS011;39539;52.202;9.876;2022-09-17T13:26:55;3.72;;;0.88;;
19675;SDS011;39539;52.202;9.876;2022-09-17T13:37:59;2.05;;;0.80;;
19675;SDS011;39539;52.202;9.876;2022-09-17T13:40:32;4.30;;;1.13;;
19675;SDS011;39539;52.202;9.876;2022-09-17T13:43:12;3.25;;;1.05;;
19675;SDS011;39539;52.202;9.876;2022-09-17T13:48:43;2.53;;;1.00;;
19675;SDS011;39539;52.202;9.876;2022-09-17T13:53:53;3.28;;;1.00;;
19675;SDS011;39539;52.202;9.876;2022-09-17T13:59:28;3.90;;;1.15;;
19675;SDS011;39539;52.202;9.876;2022-09-17T14:09:55;4.78;;;1.40;;
19675;SDS011;39539;52.202;9.876;2022-09-17T14:21:03;2.97;;;1.30;;
19675;SDS011;39539;52.202;9.876;2022-09-17T14:23:32;2.63;;;0.80;;
19675;SDS011;39539;52.202;9.876;2022-09-17T14:25:59;2.70;;;1.27;;
19675;SDS011;39539;52.202;9.876;2022-09-17T14:31:26;3.60;;;0.98;;
19675;SDS011;39539;52.202;9.876;2022-09-17T14:33:57;4.38;;;1.10;;
19675;SDS011;39539;52.202;9.876;2022-09-17T14:36:26;2.67;;;0.90;;
19675;SDS011;39539;52.202;9.876;2022-09-17T14:38:53;3.30;;;1.08;;
19675;SDS011;39539;52.202;9.876;2022-09-17T14:41:32;2.58;;;1.02;;
19675;SDS011;39539;52.202;9.876;2022-09-17T14:44:14;2.15;;;0.90;;
19675;SDS011;39539;52.202;9.876;2022-09-17T14:46:47;3.83;;;1.10;;
19675;SDS011;39539;52.202;9.876;2022-09-17T14:49:34;2.63;;;0.90;;
19675;SDS011;39539;52.202;9.876;2022-09-17T14:52:01;3.22;;;1.00;;
19675;SDS011;39539;52.202;9.876;2022-09-17T14:54:45;3.67;;;1.10;;
19675;SDS011;39539;52.202;9.876;2022-09-17T14:59:55;3.75;;;1.40;;
19675;SDS011;39539;52.202;9.876;2022-09-17T15:02:32;3.33;;;1.10;;
19675;SDS011;39539;52.202;9.876;2022-09-17T15:05:15;4.72;;;1.30;;
19675;SDS011;39539;52.202;9.876;2022-09-17T15:07:44;3.42;;;1.30;;
19675;SDS011;39539;52.202;9.876;2022-09-17T15:10:14;5.13;;;1.98;;
19675;SDS011;39539;52.202;9.876;2022-09-17T15:12:42;5.00;;;1.73;;
19675;SDS011;39539;52.202;9.876;2022-09-17T15:15:13;3.50;;;1.55;;
19675;SDS011;39539;52.202;9.876;2022-09-17T15:17:42;4.32;;;1.40;;
19675;SDS011;39539;52.202;9.876;2022-09-17T15:20:08;3.58;;;1.20;;
19675;SDS011;39539;52.202;9.876;2022-09-17T15:22:42;4.72;;;1.27;;
19675;SDS011;39539;52.202;9.876;2022-09-17T15:25:14;3.08;;;1.52;;
19675;SDS011;39539;52.202;9.876;2022-09-17T15:27:48;4.10;;;1.40;;
19675;SDS011;39539;52.202;9.876;2022-09-17T15:30:18;3.80;;;1.40;;
19675;SDS011;39539;52.202;9.876;2022-09-17T15:32:49;3.15;;;1.30;;
19675;SDS011;39539;52.202;9.876;2022-09-17T15:35:26;3.83;;;1.42;;
19675;SDS011;39539;52.202;9.876;2022-09-17T15:37:58;2.88;;;1.00;;
19675;SDS011;39539;52.202;9.876;2022-09-17T15:40:38;2.95;;;1.00;;
19675;SDS011;39539;52.202;9.876;2022-09-17T15:45:43;4.38;;;1.40;;
19675;SDS011;39539;52.202;9.876;2022-09-17T15:51:14;3.03;;;1.02;;
19675;SDS011;39539;52.202;9.876;2022-09-17T15:54:00;3.75;;;1.23;;
19675;SDS011;39539;52.202;9.876;2022-09-17T15:56:38;3.70;;;1.42;;
19675;SDS011;39539;52.202;9.876;2022-09-17T16:01:51;2.95;;;1.20;;
19675;SDS011;39539;52.202;9.876;2022-09-17T16:04:26;3.55;;;1.13;;
19675;SDS011;39539;52.202;9.876;2022-09-17T16:09:50;2.72;;;1.17;;
19675;SDS011;39539;52.202;9.876;2022-09-17T16:12:18;2.17;;;1.23;;
19675;SDS011;39539;52.202;9.876;2022-09-17T16:14:48;3.20;;;1.45;;
19675;SDS011;39539;52.202;9.876;2022-09-17T16:19:52;3.22;;;1.38;;
19675;SDS011;39539;52.202;9.876;2022-09-17T16:22:19;4.72;;;1.35;;
19675;SDS011;39539;52.202;9.876;2022-09-17T16:24:45;4.75;;;1.50;;
19675;SDS011;39539;52.202;9.876;2022-09-17T16:27:15;3.20;;;1.17;;
19675;SDS011;39539;52.202;9.876;2022-09-17T16:29:44;4.50;;;1.45;;
19675;SDS011;39539;52.202;9.876;2022-09-17T16:32:13;3.42;;;1.30;;
19675;SDS011;39539;52.202;9.876;2022-09-17T16:34:38;2.53;;;1.02;;
19675;SDS011;39539;52.202;9.876;2022-09-17T16:37:03;5.15;;;1.23;;
19675;SDS011;39539;52.202;9.876;2022-09-17T16:39:30;4.15;;;1.48;;
19675;SDS011;39539;52.202;9.876;2022-09-17T16:41:55;3.92;;;1.42;;
19675;SDS011;39539;52.202;9.876;2022-09-17T16:44:22;3.20;;;1.20;;
19675;SDS011;39539;52.202;9.876;2022-09-17T16:46:47;3.53;;;1.55;;
19675;SDS011;39539;52.202;9.876;2022-09-17T16:49:13;2.80;;;1.13;;
19675;SDS011;39539;52.202;9.876;2022-09-17T16:51:39;5.57;;;1.70;;
19675;SDS011;39539;52.202;9.876;2022-09-17T16:54:04;4.15;;;1.10;;
19675;SDS011;39539;52.202;9.876;2022-09-17T16:56:29;6.07;;;1.48;;
19675;SDS011;39539;52.202;9.876;2022-09-17T16:58:55;4.35;;;1.40;;
19675;SDS011;39539;52.202;9.876;2022-09-17T17:01:20;2.75;;;1.10;;
19675;SDS011;39539;52.202;9.876;2022-09-17T17:03:49;4.47;;;1.10;;
19675;SDS011;39539;52.202;9.876;2022-09-17T17:06:16;3.78;;;1.50;;
19675;SDS011;39539;52.202;9.876;2022-09-17T17:08:45;5.18;;;1.20;;
19675;SDS011;39539;52.202;9.876;2022-09-17T17:11:11;3.80;;;1.42;;
19675;SDS011;39539;52.202;9.876;2022-09-17T17:13:36;3.20;;;1.52;;
19675;SDS011;39539;52.202;9.876;2022-09-17T17:16:06;4.45;;;1.50;;
19675;SDS011;39539;52.202;9.876;2022-09-17T17:18:33;3.60;;;1.20;;
19675;SDS011;39539;52.202;9.876;2022-09-17T17:21:08;3.47;;;1.77;;
19675;SDS011;39539;52.202;9.876;2022-09-17T17:23:35;3.90;;;1.35;;
19675;SDS011;39539;52.202;9.876;2022-09-17T17:26:00;4.18;;;1.48;;
19675;SDS011;39539;52.202;9.876;2022-09-17T17:28:29;3.53;;;0.98;;
19675;SDS011;39539;52.202;9.876;2022-09-17T17:30:55;3.70;;;1.15;;
19675;SDS011;39539;52.202;9.876;2022-09-17T17:33:21;4.97;;;1.63;;
19675;SDS011;39539;52.202;9.876;2022-09-17T17:35:46;4.57;;;1.20;;
19675;SDS011;39539;52.202;9.876;2022-09-17T17:38:11;2.83;;;1.33;;
19675;SDS011;39539;52.202;9.876;2022-09-17T17:40:37;3.15;;;1.10;;
19675;SDS011;39539;52.202;9.876;2022-09-17T17:43:02;2.83;;;1.20;;
19675;SDS011;39539;52.202;9.876;2022-09-17T17:45:27;5.22;;;1.67;;
19675;SDS011;39539;52.202;9.876;2022-09-17T17:47:53;5.70;;;1.77;;
19675;SDS011;39539;52.202;9.876;2022-09-17T17:50:18;4.30;;;1.67;;
19675;SDS011;39539;52.202;9.876;2022-09-17T17:52:43;4.40;;;1.65;;
19675;SDS011;39539;52.202;9.876;2022-09-17T17:55:12;5.72;;;1.90;;
19675;SDS011;39539;52.202;9.876;2022-09-17T17:57:38;6.53;;;2.20;;
19675;SDS011;39539;52.202;9.876;2022-09-17T18:00:03;5.45;;;1.70;;
19675;SDS011;39539;52.202;9.876;2022-09-17T18:02:29;6.72;;;2.22;;
19675;SDS011;39539;52.202;9.876;2022-09-17T18:04:56;6.60;;;1.85;;
19675;SDS011;39539;52.202;9.876;2022-09-17T18:07:21;6.28;;;2.20;;
19675;SDS011;39539;52.202;9.876;2022-09-17T18:09:46;6.75;;;2.13;;
19675;SDS011;39539;52.202;9.876;2022-09-17T18:12:12;4.30;;;1.80;;
19675;SDS011;39539;52.202;9.876;2022-09-17T18:14:37;5.65;;;1.70;;
19675;SDS011;39539;52.202;9.876;2022-09-17T18:17:03;5.20;;;1.60;;
19675;SDS011;39539;52.202;9.876;2022-09-17T18:19:29;5.00;;;2.10;;
19675;SDS011;39539;52.202;9.876;2022-09-17T18:21:54;5.85;;;1.88;;
19675;SDS011;39539;52.202;9.876;2022-09-17T18:24:19;5.53;;;2.08;;
19675;SDS011;39539;52.202;9.876;2022-09-17T18:26:45;6.30;;;2.33;;
19675;SDS011;39539;52.202;9.876;2022-09-17T18:29:10;4.82;;;1.60;;
19675;SDS011;39539;52.202;9.876;2022-09-17T18:31:36;5.38;;;1.65;;
19675;SDS011;39539;52.202;9.876;2022-09-17T18:36:33;6.00;;;1.98;;
19675;SDS011;39539;52.202;9.876;2022-09-17T18:39:00;7.53;;;2.00;;
19675;SDS011;39539;52.202;9.876;2022-09-17T18:41:30;6.43;;;1.83;;
19675;SDS011;39539;52.202;9.876;2022-09-17T18:43:57;8.63;;;1.80;;
19675;SDS011;39539;52.202;9.876;2022-09-17T18:46:24;5.53;;;1.80;;
19675;SDS011;39539;52.202;9.876;2022-09-17T18:48:53;5.18;;;1.73;;
19675;SDS011;39539;52.202;9.876;2022-09-17T18:51:19;5.88;;;1.73;;
19675;SDS011;39539;52.202;9.876;2022-09-17T18:53:45;4.88;;;2.05;;